sensor_id;sensor_type;location;lat;lon;timestamp;P1;durP1;ratioP1;P2;durP2;ratioP2
71671;SDS011;62112;45.638;11.714;2022-08-23T00:01:04;4.30;;;1.80;;
71671;SDS011;62112;45.638;11.714;2022-08-23T00:03:35;4.53;;;1.90;;
71671;SDS011;62112;45.638;11.714;2022-08-23T00:06:01;5.10;;;1.80;;
71671;SDS011;62112;45.638;11.714;2022-08-23T00:08:27;4.15;;;1.90;;
71671;SDS011;62112;45.638;11.714;2022-08-23T00:10:53;4.35;;;2.00;;
71671;SDS011;62112;45.638;11.714;2022-08-23T00:13:20;5.10;;;1.90;;
71671;SDS011;62112;45.638;11.714;2022-08-23T00:15:46;4.63;;;2.00;;
71671;SDS011;62112;45.638;11.714;2022-08-23T00:18:12;4.10;;;1.90;;
71671;SDS011;62112;45.638;11.714;2022-08-23T00:20:39;4.47;;;1.80;;
71671;SDS011;62112;45.638;11.714;2022-08-23T00:23:05;4.68;;;1.73;;
71671;SDS011;62112;45.638;11.714;2022-08-23T00:25:31;3.63;;;1.80;;
71671;SDS011;62112;45.638;11.714;2022-08-23T00:27:57;4.07;;;1.80;;
71671;SDS011;62112;45.638;11.714;2022-08-23T00:30:23;3.55;;;1.73;;
71671;SDS011;62112;45.638;11.714;2022-08-23T00:32:49;5.13;;;1.90;;
71671;SDS011;62112;45.638;11.714;2022-08-23T00:35:15;4.05;;;1.80;;
71671;SDS011;62112;45.638;11.714;2022-08-23T00:37:42;4.33;;;2.00;;
71671;SDS011;62112;45.638;11.714;2022-08-23T00:40:09;3.90;;;1.73;;
71671;SDS011;62112;45.638;11.714;2022-08-23T00:42:41;3.88;;;1.80;;
71671;SDS011;62112;45.638;11.714;2022-08-23T00:45:37;4.05;;;1.90;;
71671;SDS011;62112;45.638;11.714;2022-08-23T00:48:26;4.47;;;2.00;;
71671;SDS011;62112;45.638;11.714;2022-08-23T00:50:54;3.70;;;1.70;;
71671;SDS011;62112;45.638;11.714;2022-08-23T00:53:30;3.90;;;1.63;;
71671;SDS011;62112;45.638;11.714;2022-08-23T00:55:59;4.40;;;1.85;;
71671;SDS011;62112;45.638;11.714;2022-08-23T00:58:27;3.85;;;1.70;;
71671;SDS011;62112;45.638;11.714;2022-08-23T01:00:55;4.55;;;1.70;;
71671;SDS011;62112;45.638;11.714;2022-08-23T01:03:23;4.87;;;2.00;;
71671;SDS011;62112;45.638;11.714;2022-08-23T01:08:48;4.57;;;1.80;;
71671;SDS011;62112;45.638;11.714;2022-08-23T01:11:23;4.38;;;1.95;;
71671;SDS011;62112;45.638;11.714;2022-08-23T01:14:00;3.92;;;1.80;;
71671;SDS011;62112;45.638;11.714;2022-08-23T01:16:37;4.37;;;1.60;;
71671;SDS011;62112;45.638;11.714;2022-08-23T01:19:12;3.80;;;1.65;;
71671;SDS011;62112;45.638;11.714;2022-08-23T01:21:56;3.53;;;1.70;;
71671;SDS011;62112;45.638;11.714;2022-08-23T01:24:42;3.95;;;1.88;;
71671;SDS011;62112;45.638;11.714;2022-08-23T01:27:10;3.97;;;1.73;;
71671;SDS011;62112;45.638;11.714;2022-08-23T01:29:37;4.00;;;1.80;;
71671;SDS011;62112;45.638;11.714;2022-08-23T01:32:05;4.10;;;1.60;;
71671;SDS011;62112;45.638;11.714;2022-08-23T01:34:32;4.90;;;1.90;;
71671;SDS011;62112;45.638;11.714;2022-08-23T01:36:59;4.28;;;1.70;;
71671;SDS011;62112;45.638;11.714;2022-08-23T01:39:25;3.65;;;1.60;;
71671;SDS011;62112;45.638;11.714;2022-08-23T01:41:51;3.73;;;1.90;;
71671;SDS011;62112;45.638;11.714;2022-08-23T01:44:17;4.75;;;1.80;;
71671;SDS011;62112;45.638;11.714;2022-08-23T01:46:44;4.65;;;2.00;;
71671;SDS011;62112;45.638;11.714;2022-08-23T01:49:11;3.83;;;1.70;;
71671;SDS011;62112;45.638;11.714;2022-08-23T01:51:38;3.85;;;1.90;;
71671;SDS011;62112;45.638;11.714;2022-08-23T01:54:04;3.83;;;1.77;;
71671;SDS011;62112;45.638;11.714;2022-08-23T01:56:31;4.28;;;1.92;;
71671;SDS011;62112;45.638;11.714;2022-08-23T01:58:58;4.60;;;1.90;;
71671;SDS011;62112;45.638;11.714;2022-08-23T02:01:24;6.15;;;2.55;;
71671;SDS011;62112;45.638;11.714;2022-08-23T02:03:50;4.47;;;2.10;;
71671;SDS011;62112;45.638;11.714;2022-08-23T02:06:16;4.67;;;2.10;;
71671;SDS011;62112;45.638;11.714;2022-08-23T02:08:42;3.85;;;1.90;;
71671;SDS011;62112;45.638;11.714;2022-08-23T02:11:32;3.92;;;2.03;;
71671;SDS011;62112;45.638;11.714;2022-08-23T02:14:04;5.03;;;2.00;;
71671;SDS011;62112;45.638;11.714;2022-08-23T02:16:36;4.33;;;2.10;;
71671;SDS011;62112;45.638;11.714;2022-08-23T02:19:04;4.95;;;2.10;;
71671;SDS011;62112;45.638;11.714;2022-08-23T02:21:32;3.88;;;1.90;;
71671;SDS011;62112;45.638;11.714;2022-08-23T02:24:04;3.45;;;1.70;;
71671;SDS011;62112;45.638;11.714;2022-08-23T02:26:33;4.50;;;1.92;;
71671;SDS011;62112;45.638;11.714;2022-08-23T02:29:00;4.37;;;1.80;;
71671;SDS011;62112;45.638;11.714;2022-08-23T02:31:26;4.60;;;2.03;;
71671;SDS011;62112;45.638;11.714;2022-08-23T02:33:52;4.75;;;1.80;;
71671;SDS011;62112;45.638;11.714;2022-08-23T02:36:18;3.92;;;1.80;;
71671;SDS011;62112;45.638;11.714;2022-08-23T02:38:44;5.10;;;2.10;;
71671;SDS011;62112;45.638;11.714;2022-08-23T02:41:09;4.72;;;2.10;;
71671;SDS011;62112;45.638;11.714;2022-08-23T02:43:36;4.00;;;1.95;;
71671;SDS011;62112;45.638;11.714;2022-08-23T02:46:03;4.13;;;2.10;;
71671;SDS011;62112;45.638;11.714;2022-08-23T02:48:31;4.13;;;2.08;;
71671;SDS011;62112;45.638;11.714;2022-08-23T02:51:01;4.88;;;2.13;;
71671;SDS011;62112;45.638;11.714;2022-08-23T02:53:29;4.97;;;1.95;;
71671;SDS011;62112;45.638;11.714;2022-08-23T02:55:56;4.40;;;1.77;;
71671;SDS011;62112;45.638;11.714;2022-08-23T02:58:23;4.43;;;1.90;;
71671;SDS011;62112;45.638;11.714;2022-08-23T03:00:49;3.83;;;1.90;;
71671;SDS011;62112;45.638;11.714;2022-08-23T03:03:16;4.45;;;2.08;;
71671;SDS011;62112;45.638;11.714;2022-08-23T03:05:42;3.95;;;2.00;;
71671;SDS011;62112;45.638;11.714;2022-08-23T03:08:08;3.53;;;1.95;;
71671;SDS011;62112;45.638;11.714;2022-08-23T03:10:35;3.90;;;1.83;;
71671;SDS011;62112;45.638;11.714;2022-08-23T03:13:01;4.65;;;1.98;;
71671;SDS011;62112;45.638;11.714;2022-08-23T03:15:27;3.83;;;2.00;;
71671;SDS011;62112;45.638;11.714;2022-08-23T03:17:53;4.82;;;2.00;;
71671;SDS011;62112;45.638;11.714;2022-08-23T03:20:18;4.07;;;1.90;;
71671;SDS011;62112;45.638;11.714;2022-08-23T03:22:44;4.47;;;2.00;;
71671;SDS011;62112;45.638;11.714;2022-08-23T03:25:10;4.90;;;2.00;;
71671;SDS011;62112;45.638;11.714;2022-08-23T03:27:36;4.43;;;1.92;;
71671;SDS011;62112;45.638;11.714;2022-08-23T03:30:03;5.03;;;2.00;;
71671;SDS011;62112;45.638;11.714;2022-08-23T03:32:30;4.30;;;1.93;;
71671;SDS011;62112;45.638;11.714;2022-08-23T03:34:56;4.93;;;2.10;;
71671;SDS011;62112;45.638;11.714;2022-08-23T03:37:22;4.90;;;2.20;;
71671;SDS011;62112;45.638;11.714;2022-08-23T03:39:47;4.87;;;1.93;;
71671;SDS011;62112;45.638;11.714;2022-08-23T03:42:14;4.47;;;1.97;;
71671;SDS011;62112;45.638;11.714;2022-08-23T03:44:40;4.63;;;2.17;;
71671;SDS011;62112;45.638;11.714;2022-08-23T03:47:06;5.35;;;2.30;;
71671;SDS011;62112;45.638;11.714;2022-08-23T03:49:32;4.10;;;2.20;;
71671;SDS011;62112;45.638;11.714;2022-08-23T03:51:58;4.37;;;2.00;;
71671;SDS011;62112;45.638;11.714;2022-08-23T03:54:25;5.20;;;2.15;;
71671;SDS011;62112;45.638;11.714;2022-08-23T03:56:56;4.20;;;1.92;;
71671;SDS011;62112;45.638;11.714;2022-08-23T03:59:29;3.67;;;1.90;;
71671;SDS011;62112;45.638;11.714;2022-08-23T04:01:58;4.30;;;2.05;;
71671;SDS011;62112;45.638;11.714;2022-08-23T04:04:24;4.70;;;2.00;;
71671;SDS011;62112;45.638;11.714;2022-08-23T04:06:49;4.82;;;2.00;;
71671;SDS011;62112;45.638;11.714;2022-08-23T04:09:15;4.57;;;2.30;;
71671;SDS011;62112;45.638;11.714;2022-08-23T04:11:42;7.25;;;2.10;;
71671;SDS011;62112;45.638;11.714;2022-08-23T04:14:08;5.60;;;2.00;;
71671;SDS011;62112;45.638;11.714;2022-08-23T04:16:34;8.48;;;2.40;;
71671;SDS011;62112;45.638;11.714;2022-08-23T04:19:08;6.45;;;2.30;;
71671;SDS011;62112;45.638;11.714;2022-08-23T04:21:44;6.15;;;2.13;;
71671;SDS011;62112;45.638;11.714;2022-08-23T04:24:14;6.15;;;2.15;;
71671;SDS011;62112;45.638;11.714;2022-08-23T04:26:40;5.53;;;2.10;;
71671;SDS011;62112;45.638;11.714;2022-08-23T04:29:07;6.45;;;2.13;;
71671;SDS011;62112;45.638;11.714;2022-08-23T04:31:33;5.20;;;1.83;;
71671;SDS011;62112;45.638;11.714;2022-08-23T04:34:00;5.32;;;2.20;;
71671;SDS011;62112;45.638;11.714;2022-08-23T04:36:27;6.45;;;2.13;;
71671;SDS011;62112;45.638;11.714;2022-08-23T04:38:56;7.03;;;2.00;;
71671;SDS011;62112;45.638;11.714;2022-08-23T04:41:21;3.90;;;1.90;;
71671;SDS011;62112;45.638;11.714;2022-08-23T04:44:06;5.70;;;1.95;;
71671;SDS011;62112;45.638;11.714;2022-08-23T04:46:32;6.05;;;1.92;;
71671;SDS011;62112;45.638;11.714;2022-08-23T04:48:58;5.03;;;2.00;;
71671;SDS011;62112;45.638;11.714;2022-08-23T04:51:24;5.65;;;2.20;;
71671;SDS011;62112;45.638;11.714;2022-08-23T04:53:50;5.28;;;1.92;;
71671;SDS011;62112;45.638;11.714;2022-08-23T04:56:16;4.60;;;1.83;;
71671;SDS011;62112;45.638;11.714;2022-08-23T04:58:42;4.78;;;1.90;;
71671;SDS011;62112;45.638;11.714;2022-08-23T05:01:09;5.30;;;2.05;;
71671;SDS011;62112;45.638;11.714;2022-08-23T05:03:35;4.95;;;2.00;;
71671;SDS011;62112;45.638;11.714;2022-08-23T05:06:02;5.57;;;2.15;;
71671;SDS011;62112;45.638;11.714;2022-08-23T05:08:29;7.23;;;1.93;;
71671;SDS011;62112;45.638;11.714;2022-08-23T05:10:58;5.13;;;1.98;;
71671;SDS011;62112;45.638;11.714;2022-08-23T05:13:28;4.85;;;2.00;;
71671;SDS011;62112;45.638;11.714;2022-08-23T05:15:55;6.00;;;1.88;;
71671;SDS011;62112;45.638;11.714;2022-08-23T05:18:21;3.80;;;1.77;;
71671;SDS011;62112;45.638;11.714;2022-08-23T05:20:48;5.13;;;2.10;;
71671;SDS011;62112;45.638;11.714;2022-08-23T05:23:14;4.85;;;1.77;;
71671;SDS011;62112;45.638;11.714;2022-08-23T05:25:40;4.05;;;1.83;;
71671;SDS011;62112;45.638;11.714;2022-08-23T05:28:15;5.35;;;2.00;;
71671;SDS011;62112;45.638;11.714;2022-08-23T05:30:44;6.03;;;2.10;;
71671;SDS011;62112;45.638;11.714;2022-08-23T05:33:10;4.47;;;2.00;;
71671;SDS011;62112;45.638;11.714;2022-08-23T05:35:37;5.10;;;2.00;;
71671;SDS011;62112;45.638;11.714;2022-08-23T05:38:04;5.55;;;2.13;;
71671;SDS011;62112;45.638;11.714;2022-08-23T05:40:30;5.80;;;2.17;;
71671;SDS011;62112;45.638;11.714;2022-08-23T05:42:56;4.15;;;2.03;;
71671;SDS011;62112;45.638;11.714;2022-08-23T05:45:22;4.83;;;1.90;;
71671;SDS011;62112;45.638;11.714;2022-08-23T05:47:47;5.30;;;1.90;;
71671;SDS011;62112;45.638;11.714;2022-08-23T05:50:13;5.53;;;1.90;;
71671;SDS011;62112;45.638;11.714;2022-08-23T05:52:39;6.03;;;2.40;;
71671;SDS011;62112;45.638;11.714;2022-08-23T05:55:05;4.70;;;1.90;;
71671;SDS011;62112;45.638;11.714;2022-08-23T05:57:36;8.35;;;2.53;;
71671;SDS011;62112;45.638;11.714;2022-08-23T06:00:05;7.05;;;2.35;;
71671;SDS011;62112;45.638;11.714;2022-08-23T06:02:48;5.27;;;2.33;;
71671;SDS011;62112;45.638;11.714;2022-08-23T06:05:43;6.80;;;2.65;;
71671;SDS011;62112;45.638;11.714;2022-08-23T06:08:22;8.25;;;2.80;;
71671;SDS011;62112;45.638;11.714;2022-08-23T06:11:10;5.80;;;2.75;;
71671;SDS011;62112;45.638;11.714;2022-08-23T06:14:01;6.63;;;2.55;;
71671;SDS011;62112;45.638;11.714;2022-08-23T06:16:32;9.30;;;2.97;;
71671;SDS011;62112;45.638;11.714;2022-08-23T06:19:00;7.10;;;2.92;;
71671;SDS011;62112;45.638;11.714;2022-08-23T06:21:30;6.63;;;3.20;;
71671;SDS011;62112;45.638;11.714;2022-08-23T06:24:00;6.85;;;2.85;;
71671;SDS011;62112;45.638;11.714;2022-08-23T06:26:35;6.05;;;2.78;;
71671;SDS011;62112;45.638;11.714;2022-08-23T06:29:05;9.17;;;2.47;;
71671;SDS011;62112;45.638;11.714;2022-08-23T06:31:33;5.65;;;2.58;;
71671;SDS011;62112;45.638;11.714;2022-08-23T06:34:19;6.90;;;2.65;;
71671;SDS011;62112;45.638;11.714;2022-08-23T06:36:49;7.38;;;2.70;;
71671;SDS011;62112;45.638;11.714;2022-08-23T06:39:18;7.72;;;2.50;;
71671;SDS011;62112;45.638;11.714;2022-08-23T06:41:46;5.37;;;2.70;;
71671;SDS011;62112;45.638;11.714;2022-08-23T06:44:13;6.45;;;2.65;;
71671;SDS011;62112;45.638;11.714;2022-08-23T06:46:39;6.68;;;2.60;;
71671;SDS011;62112;45.638;11.714;2022-08-23T06:49:06;6.65;;;2.80;;
71671;SDS011;62112;45.638;11.714;2022-08-23T06:51:41;6.70;;;3.00;;
71671;SDS011;62112;45.638;11.714;2022-08-23T06:54:10;7.03;;;3.10;;
71671;SDS011;62112;45.638;11.714;2022-08-23T06:56:38;6.90;;;3.13;;
71671;SDS011;62112;45.638;11.714;2022-08-23T06:59:06;5.72;;;3.08;;
71671;SDS011;62112;45.638;11.714;2022-08-23T07:01:37;7.50;;;2.92;;
71671;SDS011;62112;45.638;11.714;2022-08-23T07:04:11;6.88;;;2.95;;
71671;SDS011;62112;45.638;11.714;2022-08-23T07:06:38;5.90;;;2.80;;
71671;SDS011;62112;45.638;11.714;2022-08-23T07:09:05;6.65;;;2.80;;
71671;SDS011;62112;45.638;11.714;2022-08-23T07:11:31;7.45;;;2.80;;
71671;SDS011;62112;45.638;11.714;2022-08-23T07:14:00;5.47;;;2.47;;
71671;SDS011;62112;45.638;11.714;2022-08-23T07:16:33;5.60;;;2.72;;
71671;SDS011;62112;45.638;11.714;2022-08-23T07:19:01;5.93;;;2.80;;
71671;SDS011;62112;45.638;11.714;2022-08-23T07:21:28;5.47;;;2.60;;
71671;SDS011;62112;45.638;11.714;2022-08-23T07:23:54;6.18;;;2.65;;
71671;SDS011;62112;45.638;11.714;2022-08-23T07:26:21;6.53;;;2.75;;
71671;SDS011;62112;45.638;11.714;2022-08-23T07:28:48;6.32;;;2.60;;
71671;SDS011;62112;45.638;11.714;2022-08-23T07:31:24;6.17;;;2.60;;
71671;SDS011;62112;45.638;11.714;2022-08-23T07:33:53;6.93;;;2.60;;
71671;SDS011;62112;45.638;11.714;2022-08-23T07:36:21;6.00;;;2.40;;
71671;SDS011;62112;45.638;11.714;2022-08-23T07:38:48;6.07;;;2.47;;
71671;SDS011;62112;45.638;11.714;2022-08-23T07:41:14;5.38;;;2.53;;
71671;SDS011;62112;45.638;11.714;2022-08-23T07:43:42;5.57;;;2.50;;
71671;SDS011;62112;45.638;11.714;2022-08-23T07:46:09;6.00;;;2.50;;
71671;SDS011;62112;45.638;11.714;2022-08-23T07:48:35;5.50;;;2.40;;
71671;SDS011;62112;45.638;11.714;2022-08-23T07:51:03;4.97;;;2.35;;
71671;SDS011;62112;45.638;11.714;2022-08-23T07:53:31;4.63;;;2.45;;
71671;SDS011;62112;45.638;11.714;2022-08-23T07:55:58;6.20;;;2.33;;
71671;SDS011;62112;45.638;11.714;2022-08-23T07:58:28;5.03;;;2.40;;
71671;SDS011;62112;45.638;11.714;2022-08-23T08:00:54;4.53;;;2.30;;
71671;SDS011;62112;45.638;11.714;2022-08-23T08:03:20;5.30;;;2.30;;
71671;SDS011;62112;45.638;11.714;2022-08-23T08:05:46;4.80;;;2.40;;
71671;SDS011;62112;45.638;11.714;2022-08-23T08:08:12;5.00;;;2.30;;
71671;SDS011;62112;45.638;11.714;2022-08-23T08:10:39;4.72;;;2.30;;
71671;SDS011;62112;45.638;11.714;2022-08-23T08:13:08;4.70;;;2.25;;
71671;SDS011;62112;45.638;11.714;2022-08-23T08:15:35;5.18;;;2.30;;
71671;SDS011;62112;45.638;11.714;2022-08-23T08:18:06;5.82;;;2.20;;
71671;SDS011;62112;45.638;11.714;2022-08-23T08:20:32;5.50;;;2.37;;
71671;SDS011;62112;45.638;11.714;2022-08-23T08:23:01;5.15;;;2.30;;
71671;SDS011;62112;45.638;11.714;2022-08-23T08:25:28;5.28;;;2.38;;
71671;SDS011;62112;45.638;11.714;2022-08-23T08:27:57;6.75;;;2.55;;
71671;SDS011;62112;45.638;11.714;2022-08-23T08:30:25;6.20;;;2.30;;
71671;SDS011;62112;45.638;11.714;2022-08-23T08:32:52;7.07;;;2.40;;
71671;SDS011;62112;45.638;11.714;2022-08-23T08:35:18;4.30;;;2.22;;
71671;SDS011;62112;45.638;11.714;2022-08-23T08:37:44;5.05;;;2.20;;
71671;SDS011;62112;45.638;11.714;2022-08-23T08:40:10;5.03;;;2.20;;
71671;SDS011;62112;45.638;11.714;2022-08-23T08:42:46;4.33;;;2.10;;
71671;SDS011;62112;45.638;11.714;2022-08-23T08:48:44;6.10;;;2.25;;
71671;SDS011;62112;45.638;11.714;2022-08-23T08:51:26;4.55;;;2.10;;
71671;SDS011;62112;45.638;11.714;2022-08-23T08:54:06;6.07;;;2.38;;
71671;SDS011;62112;45.638;11.714;2022-08-23T08:56:36;3.97;;;2.00;;
71671;SDS011;62112;45.638;11.714;2022-08-23T08:59:07;4.22;;;2.00;;
71671;SDS011;62112;45.638;11.714;2022-08-23T09:01:37;6.68;;;2.40;;
71671;SDS011;62112;45.638;11.714;2022-08-23T09:04:04;5.22;;;2.10;;
71671;SDS011;62112;45.638;11.714;2022-08-23T09:15:30;3.80;;;2.08;;
71671;SDS011;62112;45.638;11.714;2022-08-23T09:18:13;7.65;;;2.55;;
71671;SDS011;62112;45.638;11.714;2022-08-23T09:20:41;5.70;;;2.20;;
71671;SDS011;62112;45.638;11.714;2022-08-23T09:23:11;5.00;;;2.00;;
71671;SDS011;62112;45.638;11.714;2022-08-23T09:25:52;4.97;;;2.20;;
71671;SDS011;62112;45.638;11.714;2022-08-23T09:28:19;4.03;;;2.20;;
71671;SDS011;62112;45.638;11.714;2022-08-23T09:30:53;4.35;;;2.13;;
71671;SDS011;62112;45.638;11.714;2022-08-23T09:33:21;4.95;;;2.15;;
71671;SDS011;62112;45.638;11.714;2022-08-23T09:36:11;5.40;;;2.30;;
71671;SDS011;62112;45.638;11.714;2022-08-23T09:38:54;4.95;;;2.20;;
71671;SDS011;62112;45.638;11.714;2022-08-23T09:41:27;4.53;;;2.17;;
71671;SDS011;62112;45.638;11.714;2022-08-23T09:44:01;4.82;;;2.10;;
71671;SDS011;62112;45.638;11.714;2022-08-23T09:46:30;4.40;;;2.10;;
71671;SDS011;62112;45.638;11.714;2022-08-23T09:52:10;4.28;;;2.20;;
71671;SDS011;62112;45.638;11.714;2022-08-23T09:54:59;4.80;;;2.20;;
71671;SDS011;62112;45.638;11.714;2022-08-23T09:57:32;5.43;;;2.20;;
71671;SDS011;62112;45.638;11.714;2022-08-23T10:00:15;4.68;;;2.20;;
71671;SDS011;62112;45.638;11.714;2022-08-23T10:02:48;6.00;;;2.30;;
71671;SDS011;62112;45.638;11.714;2022-08-23T10:05:17;5.32;;;2.10;;
71671;SDS011;62112;45.638;11.714;2022-08-23T10:07:55;4.40;;;2.35;;
71671;SDS011;62112;45.638;11.714;2022-08-23T10:10:39;5.00;;;2.20;;
71671;SDS011;62112;45.638;11.714;2022-08-23T10:13:11;5.78;;;2.45;;
71671;SDS011;62112;45.638;11.714;2022-08-23T10:15:48;7.30;;;2.30;;
71671;SDS011;62112;45.638;11.714;2022-08-23T10:18:29;4.32;;;1.90;;
71671;SDS011;62112;45.638;11.714;2022-08-23T10:23:38;4.13;;;2.20;;
71671;SDS011;62112;45.638;11.714;2022-08-23T10:26:31;5.13;;;2.35;;
71671;SDS011;62112;45.638;11.714;2022-08-23T10:34:40;4.80;;;2.42;;
71671;SDS011;62112;45.638;11.714;2022-08-23T10:39:47;7.10;;;2.53;;
71671;SDS011;62112;45.638;11.714;2022-08-23T10:50:38;5.80;;;2.10;;
71671;SDS011;62112;45.638;11.714;2022-08-23T10:53:10;7.32;;;2.47;;
71671;SDS011;62112;45.638;11.714;2022-08-23T10:55:42;5.07;;;2.20;;
71671;SDS011;62112;45.638;11.714;2022-08-23T11:01:01;6.78;;;2.10;;
71671;SDS011;62112;45.638;11.714;2022-08-23T11:03:29;6.60;;;2.05;;
71671;SDS011;62112;45.638;11.714;2022-08-23T11:08:57;5.43;;;2.10;;
71671;SDS011;62112;45.638;11.714;2022-08-23T11:14:31;7.15;;;2.35;;
71671;SDS011;62112;45.638;11.714;2022-08-23T11:17:23;4.80;;;2.20;;
71671;SDS011;62112;45.638;11.714;2022-08-23T11:22:30;5.53;;;2.20;;
71671;SDS011;62112;45.638;11.714;2022-08-23T11:25:04;4.82;;;2.00;;
71671;SDS011;62112;45.638;11.714;2022-08-23T11:36:16;4.07;;;1.83;;
71671;SDS011;62112;45.638;11.714;2022-08-23T11:39:03;5.25;;;2.00;;
71671;SDS011;62112;45.638;11.714;2022-08-23T11:41:59;5.72;;;2.10;;
71671;SDS011;62112;45.638;11.714;2022-08-23T11:44:34;5.50;;;2.25;;
71671;SDS011;62112;45.638;11.714;2022-08-23T11:47:11;5.63;;;2.20;;
71671;SDS011;62112;45.638;11.714;2022-08-23T11:53:02;6.47;;;1.90;;
71671;SDS011;62112;45.638;11.714;2022-08-23T11:58:21;5.82;;;2.10;;
71671;SDS011;62112;45.638;11.714;2022-08-23T12:01:06;8.30;;;2.25;;
71671;SDS011;62112;45.638;11.714;2022-08-23T12:03:54;5.57;;;2.23;;
71671;SDS011;62112;45.638;11.714;2022-08-23T12:16:58;6.73;;;2.60;;
71671;SDS011;62112;45.638;11.714;2022-08-23T12:22:52;7.82;;;2.50;;
71671;SDS011;62112;45.638;11.714;2022-08-23T12:25:28;6.85;;;2.60;;
71671;SDS011;62112;45.638;11.714;2022-08-23T12:27:58;6.13;;;2.15;;
71671;SDS011;62112;45.638;11.714;2022-08-23T12:30:36;6.70;;;2.47;;
71671;SDS011;62112;45.638;11.714;2022-08-23T12:36:07;8.18;;;2.55;;
71671;SDS011;62112;45.638;11.714;2022-08-23T12:39:05;6.15;;;2.33;;
71671;SDS011;62112;45.638;11.714;2022-08-23T12:42:03;6.28;;;2.30;;
71671;SDS011;62112;45.638;11.714;2022-08-23T12:44:33;7.27;;;2.40;;
71671;SDS011;62112;45.638;11.714;2022-08-23T12:47:08;7.05;;;2.40;;
71671;SDS011;62112;45.638;11.714;2022-08-23T12:49:36;6.90;;;2.17;;
71671;SDS011;62112;45.638;11.714;2022-08-23T12:52:05;7.45;;;2.38;;
71671;SDS011;62112;45.638;11.714;2022-08-23T12:54:38;7.95;;;2.40;;
71671;SDS011;62112;45.638;11.714;2022-08-23T12:57:18;5.47;;;2.40;;
71671;SDS011;62112;45.638;11.714;2022-08-23T12:59:56;6.68;;;2.40;;
71671;SDS011;62112;45.638;11.714;2022-08-23T13:02:39;7.65;;;2.53;;
71671;SDS011;62112;45.638;11.714;2022-08-23T13:05:10;6.45;;;1.88;;
71671;SDS011;62112;45.638;11.714;2022-08-23T13:07:42;7.63;;;2.15;;
71671;SDS011;62112;45.638;11.714;2022-08-23T13:10:09;7.20;;;2.20;;
71671;SDS011;62112;45.638;11.714;2022-08-23T13:12:36;5.15;;;1.88;;
71671;SDS011;62112;45.638;11.714;2022-08-23T13:15:03;6.20;;;2.22;;
71671;SDS011;62112;45.638;11.714;2022-08-23T13:17:31;4.57;;;1.95;;
71671;SDS011;62112;45.638;11.714;2022-08-23T13:22:55;6.57;;;2.20;;
71671;SDS011;62112;45.638;11.714;2022-08-23T13:25:31;5.90;;;2.20;;
71671;SDS011;62112;45.638;11.714;2022-08-23T13:28:04;5.28;;;2.00;;
71671;SDS011;62112;45.638;11.714;2022-08-23T13:30:33;6.63;;;2.28;;
71671;SDS011;62112;45.638;11.714;2022-08-23T13:33:22;6.43;;;2.10;;
71671;SDS011;62112;45.638;11.714;2022-08-23T13:35:50;5.30;;;1.90;;
71671;SDS011;62112;45.638;11.714;2022-08-23T13:38:31;5.30;;;2.10;;
71671;SDS011;62112;45.638;11.714;2022-08-23T13:41:01;6.95;;;2.00;;
71671;SDS011;62112;45.638;11.714;2022-08-23T13:43:38;6.03;;;2.00;;
71671;SDS011;62112;45.638;11.714;2022-08-23T13:54:48;5.07;;;1.90;;
71671;SDS011;62112;45.638;11.714;2022-08-23T13:57:15;4.65;;;2.10;;
71671;SDS011;62112;45.638;11.714;2022-08-23T14:02:17;4.73;;;1.97;;
71671;SDS011;62112;45.638;11.714;2022-08-23T14:04:46;5.07;;;1.90;;
71671;SDS011;62112;45.638;11.714;2022-08-23T14:07:19;5.22;;;1.95;;
71671;SDS011;62112;45.638;11.714;2022-08-23T14:10:20;5.88;;;2.10;;
71671;SDS011;62112;45.638;11.714;2022-08-23T14:12:48;4.75;;;2.00;;
71671;SDS011;62112;45.638;11.714;2022-08-23T14:15:16;4.73;;;2.10;;
71671;SDS011;62112;45.638;11.714;2022-08-23T14:17:44;5.25;;;2.20;;
71671;SDS011;62112;45.638;11.714;2022-08-23T14:20:14;6.57;;;2.20;;
71671;SDS011;62112;45.638;11.714;2022-08-23T14:22:46;5.15;;;1.90;;
71671;SDS011;62112;45.638;11.714;2022-08-23T14:25:27;4.68;;;2.00;;
71671;SDS011;62112;45.638;11.714;2022-08-23T14:27:52;5.60;;;2.10;;
71671;SDS011;62112;45.638;11.714;2022-08-23T14:30:29;5.57;;;2.10;;
71671;SDS011;62112;45.638;11.714;2022-08-23T14:32:57;4.85;;;2.00;;
71671;SDS011;62112;45.638;11.714;2022-08-23T14:35:25;4.75;;;2.08;;
71671;SDS011;62112;45.638;11.714;2022-08-23T14:37:51;5.20;;;2.00;;
71671;SDS011;62112;45.638;11.714;2022-08-23T14:40:17;8.20;;;2.00;;
71671;SDS011;62112;45.638;11.714;2022-08-23T14:42:43;4.65;;;1.90;;
71671;SDS011;62112;45.638;11.714;2022-08-23T14:45:11;7.40;;;1.90;;
71671;SDS011;62112;45.638;11.714;2022-08-23T14:47:38;4.80;;;2.08;;
71671;SDS011;62112;45.638;11.714;2022-08-23T14:50:05;7.70;;;2.13;;
71671;SDS011;62112;45.638;11.714;2022-08-23T14:52:37;4.83;;;2.10;;
71671;SDS011;62112;45.638;11.714;2022-08-23T14:55:06;4.55;;;1.92;;
71671;SDS011;62112;45.638;11.714;2022-08-23T14:57:32;5.38;;;2.00;;
71671;SDS011;62112;45.638;11.714;2022-08-23T14:59:58;4.85;;;2.15;;
71671;SDS011;62112;45.638;11.714;2022-08-23T15:02:24;5.63;;;1.80;;
71671;SDS011;62112;45.638;11.714;2022-08-23T15:04:51;4.00;;;1.60;;
71671;SDS011;62112;45.638;11.714;2022-08-23T15:07:18;4.47;;;1.88;;
71671;SDS011;62112;45.638;11.714;2022-08-23T15:09:45;4.80;;;2.00;;
71671;SDS011;62112;45.638;11.714;2022-08-23T15:12:12;4.15;;;1.80;;
71671;SDS011;62112;45.638;11.714;2022-08-23T15:14:38;4.10;;;2.00;;
71671;SDS011;62112;45.638;11.714;2022-08-23T15:17:05;4.82;;;2.10;;
71671;SDS011;62112;45.638;11.714;2022-08-23T15:19:31;3.92;;;1.73;;
71671;SDS011;62112;45.638;11.714;2022-08-23T15:21:58;4.50;;;1.80;;
71671;SDS011;62112;45.638;11.714;2022-08-23T15:24:24;4.60;;;1.83;;
71671;SDS011;62112;45.638;11.714;2022-08-23T15:26:50;4.22;;;1.88;;
71671;SDS011;62112;45.638;11.714;2022-08-23T15:29:17;5.70;;;2.00;;
71671;SDS011;62112;45.638;11.714;2022-08-23T15:31:43;4.82;;;1.88;;
71671;SDS011;62112;45.638;11.714;2022-08-23T15:34:09;4.03;;;1.67;;
71671;SDS011;62112;45.638;11.714;2022-08-23T15:36:35;5.28;;;2.00;;
71671;SDS011;62112;45.638;11.714;2022-08-23T15:39:05;4.05;;;1.63;;
71671;SDS011;62112;45.638;11.714;2022-08-23T15:41:31;4.75;;;1.90;;
71671;SDS011;62112;45.638;11.714;2022-08-23T15:43:57;4.73;;;1.80;;
71671;SDS011;62112;45.638;11.714;2022-08-23T15:46:23;4.70;;;1.90;;
71671;SDS011;62112;45.638;11.714;2022-08-23T15:48:53;3.75;;;1.77;;
71671;SDS011;62112;45.638;11.714;2022-08-23T15:51:22;5.13;;;2.08;;
71671;SDS011;62112;45.638;11.714;2022-08-23T15:53:48;4.07;;;1.70;;
71671;SDS011;62112;45.638;11.714;2022-08-23T15:56:18;4.38;;;1.80;;
71671;SDS011;62112;45.638;11.714;2022-08-23T15:58:52;4.18;;;1.67;;
71671;SDS011;62112;45.638;11.714;2022-08-23T16:01:18;4.72;;;1.80;;
71671;SDS011;62112;45.638;11.714;2022-08-23T16:03:47;4.53;;;1.73;;
71671;SDS011;62112;45.638;11.714;2022-08-23T16:06:14;4.80;;;1.90;;
71671;SDS011;62112;45.638;11.714;2022-08-23T16:08:41;4.47;;;1.73;;
71671;SDS011;62112;45.638;11.714;2022-08-23T16:11:11;4.38;;;1.80;;
71671;SDS011;62112;45.638;11.714;2022-08-23T16:13:42;3.58;;;1.60;;
71671;SDS011;62112;45.638;11.714;2022-08-23T16:16:26;4.57;;;1.70;;
71671;SDS011;62112;45.638;11.714;2022-08-23T16:18:56;4.90;;;1.77;;
71671;SDS011;62112;45.638;11.714;2022-08-23T16:21:26;5.78;;;1.55;;
71671;SDS011;62112;45.638;11.714;2022-08-23T16:27:05;5.10;;;1.80;;
71671;SDS011;62112;45.638;11.714;2022-08-23T16:29:38;4.18;;;1.75;;